Time,TemperatureF,DewpointF,PressureIn,WindDirection,WindDirectionDegrees,WindSpeedMPH,WindSpeedGustMPH,Humidity,HourlyPrecipIn,Conditions,Clouds,dailyrainin,SoftwareType,DateUTC
2013-12-05 00:00:00,34.6,25.4,29.80,North,0,0.0,0.0,69,0.00,,,0.00,WUHU216HW,2013-12-05 07:00:00,
2013-12-05 00:01:00,34.6,25.4,29.79,North,0,0.0,0.0,69,0.00,,,0.00,WUHU216HW,2013-12-05 07:01:00,
2013-12-05 00:02:00,34.6,25.4,29.79,North,0,0.0,0.0,69,0.00,,,0.00,WUHU216HW,2013-12-05 07:02:00,
2013-12-05 00:05:00,34.6,25.4,29.79,North,0,0.0,0.0,69,0.00,,,0.00,WUHU216HW,2013-12-05 07:05:00,
2013-12-05 00:06:00,34.6,25.4,29.79,North,0,0.0,0.0,69,0.00,,,0.00,WUHU216HW,2013-12-05 07:06:00,
2013-12-05 00:09:00,34.6,25.4,29.79,North,0,0.0,0.0,69,0.00,,,0.00,WUHU216HW,2013-12-05 07:09:00,
2013-12-05 00:30:00,33.5,24.3,29.80,North,0,0.0,0.0,69,0.00,,,0.00,WUHU216HW,2013-12-05 07:30:00,
2013-12-05 00:31:00,33.5,24.3,29.80,North,0,0.0,0.0,69,0.00,,,0.00,WUHU216HW,2013-12-05 07:31:00,
2013-12-05 00:32:00,33.5,24.3,29.80,North,0,0.0,0.0,69,0.00,,,0.00,WUHU216HW,2013-12-05 07:32:00,
2013-12-05 00:36:00,33.5,24.3,29.80,North,0,0.0,0.0,69,0.00,,,0.00,WUHU216HW,2013-12-05 07:36:00,
2013-12-05 00:37:00,33.5,24.3,29.80,North,0,0.0,0.0,69,0.00,,,0.00,WUHU216HW,2013-12-05 07:37:00,
2013-12-05 01:00:00,32.8,24.0,29.79,North,0,0.0,0.0,70,0.00,,,0.00,WUHU216HW,2013-12-05 08:00:00,
2013-12-05 01:01:00,32.9,24.2,29.79,North,0,0.0,0.0,70,0.00,,,0.00,WUHU216HW,2013-12-05 08:01:00,
2013-12-05 01:02:00,32.9,24.2,29.79,North,0,0.0,0.0,70,0.00,,,0.00,WUHU216HW,2013-12-05 08:02:00,
2013-12-05 01:05:00,32.9,24.2,29.79,North,0,0.0,0.0,70,0.00,,,0.00,WUHU216HW,2013-12-05 08:05:00,
2013-12-05 01:06:00,32.9,24.2,29.79,North,0,0.0,0.0,70,0.00,,,0.00,WUHU216HW,2013-12-05 08:06:00,
2013-12-05 01:08:00,32.9,24.2,29.79,North,0,0.0,0.0,70,0.00,,,0.00,WUHU216HW,2013-12-05 08:08:00,
2013-12-05 01:30:00,32.4,23.8,29.78,North,0,0.0,0.0,70,0.00,,,0.00,WUHU216HW,2013-12-05 08:30:00,
2013-12-05 01:31:00,32.4,23.8,29.78,North,0,0.0,0.0,70,0.00,,,0.00,WUHU216HW,2013-12-05 08:31:00,
2013-12-05 01:32:00,32.4,23.8,29.78,North,0,0.0,0.0,70,0.00,,,0.00,WUHU216HW,2013-12-05 08:32:00,
2013-12-05 01:33:00,32.4,23.8,29.78,North,0,0.0,0.0,70,0.00,,,0.00,WUHU216HW,2013-12-05 08:33:00,
2013-12-05 01:36:00,32.4,23.8,29.78,North,0,0.0,0.0,70,0.00,,,0.00,WUHU216HW,2013-12-05 08:36:00,
2013-12-05 01:37:00,32.4,23.8,29.78,North,0,0.0,0.0,70,0.00,,,0.00,WUHU216HW,2013-12-05 08:37:00,
2013-12-05 01:38:00,32.4,23.8,29.78,North,0,0.0,0.0,70,0.00,,,0.00,WUHU216HW,2013-12-05 08:38:00,
2013-12-05 01:40:00,32.4,23.8,29.78,North,0,0.0,0.0,70,0.00,,,0.00,WUHU216HW,2013-12-05 08:40:00,
2013-12-05 02:00:00,32.0,23.0,29.78,North,0,0.0,0.0,69,0.00,,,0.00,WUHU216HW,2013-12-05 09:00:00,
2013-12-05 02:01:00,32.0,23.0,29.78,North,0,0.0,0.0,69,0.00,,,0.00,WUHU216HW,2013-12-05 09:01:00,
2013-12-05 02:02:00,32.0,23.0,29.78,North,0,0.0,0.0,69,0.00,,,0.00,WUHU216HW,2013-12-05 09:02:00,
2013-12-05 02:03:00,32.0,23.0,29.78,North,0,0.0,0.0,69,0.00,,,0.00,WUHU216HW,2013-12-05 09:03:00,
2013-12-05 02:05:00,32.0,23.0,29.78,North,0,0.0,0.0,69,0.00,,,0.00,WUHU216HW,2013-12-05 09:05:00,
2013-12-05 02:06:00,32.0,23.0,29.78,North,0,0.0,0.0,69,0.00,,,0.00,WUHU216HW,2013-12-05 09:06:00,
2013-12-05 02:07:00,32.0,23.0,29.78,North,0,0.0,0.0,69,0.00,,,0.00,WUHU216HW,2013-12-05 09:07:00,
2013-12-05 02:08:00,32.0,23.0,29.78,North,0,0.0,0.0,69,0.00,,,0.00,WUHU216HW,2013-12-05 09:08:00,
2013-12-05 02:30:00,31.3,22.7,29.79,North,0,0.0,0.0,70,0.00,,,0.00,WUHU216HW,2013-12-05 09:30:00,
2013-12-05 02:31:00,31.3,22.7,29.79,North,0,0.0,0.0,70,0.00,,,0.00,WUHU216HW,2013-12-05 09:31:00,
2013-12-05 02:32:00,31.3,22.7,29.79,North,0,0.0,0.0,70,0.00,,,0.00,WUHU216HW,2013-12-05 09:32:00,
2013-12-05 02:35:00,31.3,22.7,29.79,North,0,0.0,0.0,70,0.00,,,0.00,WUHU216HW,2013-12-05 09:35:00,
2013-12-05 02:36:00,31.3,22.7,29.79,North,0,0.0,0.0,70,0.00,,,0.00,WUHU216HW,2013-12-05 09:36:00,
2013-12-05 02:37:00,31.3,22.7,29.79,North,0,0.0,0.0,70,0.00,,,0.00,WUHU216HW,2013-12-05 09:37:00,
2013-12-05 02:38:00,31.3,22.7,29.79,North,0,0.0,0.0,70,0.00,,,0.00,WUHU216HW,2013-12-05 09:38:00,
2013-12-05 03:00:00,30.8,22.5,29.78,North,0,0.0,0.0,71,0.00,,,0.00,WUHU216HW,2013-12-05 10:00:00,
2013-12-05 03:03:00,31.0,22.7,29.79,North,0,0.0,0.0,71,0.00,,,0.00,WUHU216HW,2013-12-05 10:03:00,
2013-12-05 03:05:00,31.0,22.7,29.79,North,0,0.0,0.0,71,0.00,,,0.00,WUHU216HW,2013-12-05 10:05:00,
2013-12-05 03:06:00,31.0,22.7,29.79,North,0,0.0,0.0,71,0.00,,,0.00,WUHU216HW,2013-12-05 10:06:00,
2013-12-05 03:09:00,31.0,22.7,29.79,North,0,0.0,0.0,71,0.00,,,0.00,WUHU216HW,2013-12-05 10:09:00,
2013-12-05 03:30:00,30.4,22.4,29.78,North,0,0.0,0.0,72,0.00,,,0.00,WUHU216HW,2013-12-05 10:30:00,
2013-12-05 03:31:00,30.4,22.4,29.78,North,0,0.0,0.0,72,0.00,,,0.00,WUHU216HW,2013-12-05 10:31:00,
2013-12-05 03:32:00,30.4,22.4,29.78,North,0,0.0,0.0,72,0.00,,,0.00,WUHU216HW,2013-12-05 10:32:00,
2013-12-05 03:35:00,30.4,22.4,29.78,North,0,0.0,0.0,72,0.00,,,0.00,WUHU216HW,2013-12-05 10:35:00,
2013-12-05 03:36:00,30.4,22.4,29.78,North,0,0.0,0.0,72,0.00,,,0.00,WUHU216HW,2013-12-05 10:36:00,
2013-12-05 03:37:00,30.4,22.4,29.78,North,0,0.0,0.0,72,0.00,,,0.00,WUHU216HW,2013-12-05 10:37:00,
2013-12-05 04:00:00,29.5,22.2,29.79,North,0,0.0,0.0,74,0.00,,,0.00,WUHU216HW,2013-12-05 11:00:00,
2013-12-05 04:01:00,29.5,22.2,29.79,North,0,0.0,0.0,74,0.00,,,0.00,WUHU216HW,2013-12-05 11:01:00,
2013-12-05 04:04:00,29.5,22.2,29.79,North,0,0.0,0.0,74,0.00,,,0.00,WUHU216HW,2013-12-05 11:04:00,
2013-12-05 04:05:00,29.5,22.2,29.79,North,0,0.0,0.0,74,0.00,,,0.00,WUHU216HW,2013-12-05 11:05:00,
2013-12-05 04:06:00,29.5,22.2,29.79,North,0,0.0,0.0,74,0.00,,,0.00,WUHU216HW,2013-12-05 11:06:00,
2013-12-05 04:07:00,29.5,22.2,29.79,North,0,0.0,0.0,74,0.00,,,0.00,WUHU216HW,2013-12-05 11:07:00,
2013-12-05 04:09:00,29.5,22.2,29.79,North,0,0.0,0.0,74,0.00,,,0.00,WUHU216HW,2013-12-05 11:09:00,
2013-12-05 04:30:00,29.3,21.8,29.78,North,0,0.0,0.0,73,0.00,,,0.00,WUHU216HW,2013-12-05 11:30:00,
2013-12-05 04:31:00,29.3,21.8,29.78,North,0,0.0,0.0,73,0.00,,,0.00,WUHU216HW,2013-12-05 11:31:00,
2013-12-05 04:32:00,29.3,21.8,29.78,North,0,0.0,0.0,73,0.00,,,0.00,WUHU216HW,2013-12-05 11:32:00,
2013-12-05 04:33:00,29.3,21.8,29.78,North,0,0.0,0.0,73,0.00,,,0.00,WUHU216HW,2013-12-05 11:33:00,
2013-12-05 04:35:00,29.3,21.8,29.78,North,0,0.0,0.0,73,0.00,,,0.00,WUHU216HW,2013-12-05 11:35:00,
2013-12-05 04:36:00,29.3,21.8,29.78,North,0,0.0,0.0,73,0.00,,,0.00,WUHU216HW,2013-12-05 11:36:00,
2013-12-05 04:37:00,29.3,21.8,29.78,North,0,0.0,0.0,73,0.00,,,0.00,WUHU216HW,2013-12-05 11:37:00,
2013-12-05 04:38:00,29.3,21.8,29.78,North,0,0.0,0.0,73,0.00,,,0.00,WUHU216HW,2013-12-05 11:38:00,
2013-12-05 04:39:00,29.3,21.8,29.78,North,0,0.0,0.0,73,0.00,,,0.00,WUHU216HW,2013-12-05 11:39:00,
2013-12-05 05:00:00,28.8,21.5,29.78,North,0,0.0,0.0,74,0.00,,,0.00,WUHU216HW,2013-12-05 12:00:00,
2013-12-05 05:01:00,28.8,21.5,29.78,North,0,0.0,0.0,74,0.00,,,0.00,WUHU216HW,2013-12-05 12:01:00,
2013-12-05 05:03:00,28.8,21.5,29.78,North,0,0.0,0.0,74,0.00,,,0.00,WUHU216HW,2013-12-05 12:03:00,
2013-12-05 05:05:00,28.8,21.5,29.78,North,0,0.0,0.0,74,0.00,,,0.00,WUHU216HW,2013-12-05 12:05:00,
2013-12-05 05:06:00,28.8,21.5,29.78,North,0,0.0,0.0,74,0.00,,,0.00,WUHU216HW,2013-12-05 12:06:00,
2013-12-05 05:07:00,28.8,21.5,29.78,North,0,0.0,0.0,74,0.00,,,0.00,WUHU216HW,2013-12-05 12:07:00,
2013-12-05 05:08:00,28.8,21.5,29.78,North,0,0.0,0.0,74,0.00,,,0.00,WUHU216HW,2013-12-05 12:08:00,
2013-12-05 05:30:00,28.4,21.3,29.79,North,0,0.0,0.0,74,0.00,,,0.00,WUHU216HW,2013-12-05 12:30:00,
2013-12-05 05:31:00,28.4,21.3,29.79,North,0,0.0,0.0,74,0.00,,,0.00,WUHU216HW,2013-12-05 12:31:00,
2013-12-05 05:36:00,28.4,21.3,29.79,North,0,0.0,0.0,74,0.00,,,0.00,WUHU216HW,2013-12-05 12:36:00,
2013-12-05 05:37:00,28.4,21.3,29.79,North,0,0.0,0.0,74,0.00,,,0.00,WUHU216HW,2013-12-05 12:37:00,
2013-12-05 05:38:00,28.4,21.3,29.79,North,0,0.0,0.0,74,0.00,,,0.00,WUHU216HW,2013-12-05 12:38:00,
2013-12-05 06:00:00,28.1,20.5,29.79,North,0,0.0,0.0,73,0.00,,,0.00,WUHU216HW,2013-12-05 13:00:00,
2013-12-05 06:02:00,28.1,20.5,29.79,North,0,0.0,0.0,73,0.00,,,0.00,WUHU216HW,2013-12-05 13:02:00,
2013-12-05 06:05:00,28.1,20.5,29.79,North,0,0.0,0.0,73,0.00,,,0.00,WUHU216HW,2013-12-05 13:05:00,
2013-12-05 06:07:00,28.1,20.5,29.79,North,0,0.0,0.0,73,0.00,,,0.00,WUHU216HW,2013-12-05 13:07:00,
2013-12-05 06:08:00,28.1,20.5,29.79,North,0,0.0,0.0,73,0.00,,,0.00,WUHU216HW,2013-12-05 13:08:00,
2013-12-05 06:09:00,28.1,20.5,29.79,North,0,0.0,0.0,73,0.00,,,0.00,WUHU216HW,2013-12-05 13:09:00,
2013-12-05 06:30:00,27.7,20.2,29.80,North,0,0.0,0.0,73,0.00,,,0.00,WUHU216HW,2013-12-05 13:30:00,
2013-12-05 06:31:00,27.7,20.2,29.80,North,0,0.0,0.0,73,0.00,,,0.00,WUHU216HW,2013-12-05 13:31:00,
2013-12-05 06:32:00,27.7,20.2,29.80,North,0,0.0,0.0,73,0.00,,,0.00,WUHU216HW,2013-12-05 13:32:00,
2013-12-05 06:36:00,27.7,20.2,29.80,North,0,0.0,0.0,73,0.00,,,0.00,WUHU216HW,2013-12-05 13:36:00,
2013-12-05 06:37:00,27.7,20.2,29.80,North,0,0.0,0.0,73,0.00,,,0.00,WUHU216HW,2013-12-05 13:37:00,
2013-12-05 06:38:00,27.7,20.2,29.80,North,0,0.0,0.0,73,0.00,,,0.00,WUHU216HW,2013-12-05 13:38:00,
2013-12-05 07:00:00,27.4,19.5,29.80,North,0,0.0,0.0,72,0.00,,,0.00,WUHU216HW,2013-12-05 14:00:00,
2013-12-05 07:01:00,27.4,19.5,29.80,North,0,0.0,0.0,72,0.00,,,0.00,WUHU216HW,2013-12-05 14:01:00,
2013-12-05 07:05:00,27.4,19.5,29.80,North,0,0.0,0.0,72,0.00,,,0.00,WUHU216HW,2013-12-05 14:05:00,
2013-12-05 07:06:00,27.4,19.5,29.80,North,0,0.0,0.0,72,0.00,,,0.00,WUHU216HW,2013-12-05 14:06:00,
2013-12-05 07:07:00,27.4,19.5,29.80,North,0,0.0,0.0,72,0.00,,,0.00,WUHU216HW,2013-12-05 14:07:00,
2013-12-05 07:09:00,27.4,19.5,29.80,North,0,0.0,0.0,72,0.00,,,0.00,WUHU216HW,2013-12-05 14:09:00,
2013-12-05 07:30:00,27.0,19.4,29.81,North,0,0.0,0.0,73,0.00,,,0.00,WUHU216HW,2013-12-05 14:30:00,
2013-12-05 07:31:00,26.8,19.3,29.81,North,0,0.0,0.0,73,0.00,,,0.00,WUHU216HW,2013-12-05 14:31:00,
2013-12-05 07:33:00,26.8,19.3,29.81,North,0,0.0,0.0,73,0.00,,,0.00,WUHU216HW,2013-12-05 14:33:00,
2013-12-05 07:36:00,26.8,19.3,29.81,North,0,0.0,0.0,73,0.00,,,0.00,WUHU216HW,2013-12-05 14:36:00,
2013-12-05 07:37:00,26.8,19.3,29.81,North,0,0.0,0.0,73,0.00,,,0.00,WUHU216HW,2013-12-05 14:37:00,
2013-12-05 07:38:00,26.8,19.3,29.81,North,0,0.0,0.0,73,0.00,,,0.00,WUHU216HW,2013-12-05 14:38:00,
2013-12-05 08:00:00,27.2,19.4,29.82,North,0,0.0,0.0,72,0.00,,,0.00,WUHU216HW,2013-12-05 15:00:00,
2013-12-05 08:01:00,27.2,19.4,29.82,North,0,0.0,0.0,72,0.00,,,0.00,WUHU216HW,2013-12-05 15:01:00,
2013-12-05 08:05:00,27.2,19.4,29.82,North,0,0.0,0.0,72,0.00,,,0.00,WUHU216HW,2013-12-05 15:05:00,
2013-12-05 08:06:00,27.2,19.4,29.82,North,0,0.0,0.0,72,0.00,,,0.00,WUHU216HW,2013-12-05 15:06:00,
2013-12-05 08:07:00,27.2,19.4,29.82,North,0,0.0,0.0,72,0.00,,,0.00,WUHU216HW,2013-12-05 15:07:00,
2013-12-05 08:30:00,29.3,21.8,29.83,North,0,0.0,0.0,73,0.00,,,0.00,WUHU216HW,2013-12-05 15:30:00,
2013-12-05 08:31:00,29.3,21.8,29.83,North,0,0.0,0.0,73,0.00,,,0.00,WUHU216HW,2013-12-05 15:31:00,
2013-12-05 08:32:00,29.3,21.8,29.83,North,0,0.0,0.0,73,0.00,,,0.00,WUHU216HW,2013-12-05 15:32:00,
2013-12-05 08:33:00,29.3,21.8,29.83,North,0,0.0,0.0,73,0.00,,,0.00,WUHU216HW,2013-12-05 15:33:00,
2013-12-05 08:34:00,29.3,21.8,29.83,North,0,0.0,0.0,73,0.00,,,0.00,WUHU216HW,2013-12-05 15:34:00,
2013-12-05 08:36:00,29.3,21.8,29.83,North,0,0.0,0.0,73,0.00,,,0.00,WUHU216HW,2013-12-05 15:36:00,
2013-12-05 08:37:00,29.3,21.8,29.83,North,0,0.0,0.0,73,0.00,,,0.00,WUHU216HW,2013-12-05 15:37:00,
2013-12-05 08:38:00,29.3,21.8,29.83,North,0,0.0,0.0,73,0.00,,,0.00,WUHU216HW,2013-12-05 15:38:00,
2013-12-05 08:39:00,29.3,21.8,29.83,North,0,0.0,0.0,73,0.00,,,0.00,WUHU216HW,2013-12-05 15:39:00,
2013-12-05 09:00:00,31.3,22.7,29.83,North,0,0.0,0.0,70,0.00,,,0.00,WUHU216HW,2013-12-05 16:00:00,
2013-12-05 09:01:00,31.3,22.3,29.83,North,0,0.0,0.0,69,0.00,,,0.00,WUHU216HW,2013-12-05 16:01:00,
2013-12-05 09:02:00,31.3,22.3,29.83,North,0,0.0,0.0,69,0.00,,,0.00,WUHU216HW,2013-12-05 16:02:00,
2013-12-05 09:05:00,31.3,22.3,29.83,North,0,0.0,0.0,69,0.00,,,0.00,WUHU216HW,2013-12-05 16:05:00,
2013-12-05 09:06:00,31.3,22.3,29.83,North,0,0.0,0.0,69,0.00,,,0.00,WUHU216HW,2013-12-05 16:06:00,
2013-12-05 09:09:00,31.3,22.3,29.83,North,0,0.0,0.0,69,0.00,,,0.00,WUHU216HW,2013-12-05 16:09:00,
2013-12-05 09:30:00,33.1,23.0,29.85,North,0,0.0,0.0,66,0.00,,,0.00,WUHU216HW,2013-12-05 16:30:00,
2013-12-05 09:31:00,33.1,23.0,29.85,North,0,0.0,0.0,66,0.00,,,0.00,WUHU216HW,2013-12-05 16:31:00,
2013-12-05 09:32:00,33.1,23.0,29.85,North,0,0.0,0.0,66,0.00,,,0.00,WUHU216HW,2013-12-05 16:32:00,
2013-12-05 09:35:00,33.1,23.0,29.85,North,0,0.0,0.0,66,0.00,,,0.00,WUHU216HW,2013-12-05 16:35:00,
2013-12-05 09:36:00,33.1,23.0,29.85,North,0,0.0,0.0,66,0.00,,,0.00,WUHU216HW,2013-12-05 16:36:00,
2013-12-05 09:38:00,33.1,23.0,29.85,North,0,0.0,0.0,66,0.00,,,0.00,WUHU216HW,2013-12-05 16:38:00,
2013-12-05 10:00:00,35.5,23.8,29.86,North,0,0.0,0.0,62,0.00,,,0.00,WUHU216HW,2013-12-05 17:00:00,
2013-12-05 10:01:00,35.3,23.6,29.85,North,0,0.0,0.0,62,0.00,,,0.00,WUHU216HW,2013-12-05 17:01:00,
2013-12-05 10:03:00,35.3,23.6,29.85,North,0,0.0,0.0,62,0.00,,,0.00,WUHU216HW,2013-12-05 17:03:00,
2013-12-05 10:05:00,35.3,23.6,29.85,North,0,0.0,0.0,62,0.00,,,0.00,WUHU216HW,2013-12-05 17:05:00,
2013-12-05 10:06:00,35.3,23.6,29.85,North,0,0.0,0.0,62,0.00,,,0.00,WUHU216HW,2013-12-05 17:06:00,
2013-12-05 10:07:00,35.3,23.6,29.85,North,0,0.0,0.0,62,0.00,,,0.00,WUHU216HW,2013-12-05 17:07:00,
2013-12-05 10:08:00,35.3,23.6,29.85,North,0,0.0,0.0,62,0.00,,,0.00,WUHU216HW,2013-12-05 17:08:00,
2013-12-05 10:30:00,37.4,24.8,29.86,North,0,0.0,0.0,60,0.00,,,0.00,WUHU216HW,2013-12-05 17:30:00,
2013-12-05 10:31:00,37.4,24.8,29.86,North,0,0.0,0.0,60,0.00,,,0.00,WUHU216HW,2013-12-05 17:31:00,
2013-12-05 10:32:00,37.4,24.8,29.86,North,0,0.0,0.0,60,0.00,,,0.00,WUHU216HW,2013-12-05 17:32:00,
2013-12-05 10:33:00,37.4,24.8,29.86,North,0,0.0,0.0,60,0.00,,,0.00,WUHU216HW,2013-12-05 17:33:00,
2013-12-05 10:36:00,37.4,24.8,29.86,North,0,0.0,0.0,60,0.00,,,0.00,WUHU216HW,2013-12-05 17:36:00,
2013-12-05 10:38:00,37.4,24.8,29.86,North,0,0.0,0.0,60,0.00,,,0.00,WUHU216HW,2013-12-05 17:38:00,
2013-12-05 10:39:00,37.4,24.8,29.86,North,0,0.0,0.0,60,0.00,,,0.00,WUHU216HW,2013-12-05 17:39:00,
2013-12-05 11:00:00,39.2,23.9,29.85,North,0,0.0,0.0,54,0.00,,,0.00,WUHU216HW,2013-12-05 18:00:00,
2013-12-05 11:01:00,39.2,23.9,29.85,North,0,0.0,0.0,54,0.00,,,0.00,WUHU216HW,2013-12-05 18:01:00,
2013-12-05 11:03:00,39.2,23.9,29.85,North,0,0.0,0.0,54,0.00,,,0.00,WUHU216HW,2013-12-05 18:03:00,
2013-12-05 11:05:00,39.2,23.9,29.85,North,0,0.0,0.0,54,0.00,,,0.00,WUHU216HW,2013-12-05 18:05:00,
2013-12-05 11:06:00,39.2,23.9,29.85,North,0,0.0,0.0,54,0.00,,,0.00,WUHU216HW,2013-12-05 18:06:00,
2013-12-05 11:07:00,39.2,23.9,29.85,North,0,0.0,0.0,54,0.00,,,0.00,WUHU216HW,2013-12-05 18:07:00,
2013-12-05 11:09:00,39.2,23.9,29.85,North,0,0.0,0.0,54,0.00,,,0.00,WUHU216HW,2013-12-05 18:09:00,
2013-12-05 11:30:00,40.0,22.2,29.84,North,0,0.0,0.0,49,0.00,,,0.00,WUHU216HW,2013-12-05 18:30:00,
2013-12-05 11:31:00,40.1,22.4,29.84,North,0,0.0,0.0,49,0.00,,,0.00,WUHU216HW,2013-12-05 18:31:00,
2013-12-05 11:32:00,40.1,22.4,29.84,North,0,0.0,0.0,49,0.00,,,0.00,WUHU216HW,2013-12-05 18:32:00,
2013-12-05 11:36:00,40.1,22.4,29.84,North,0,0.0,0.0,49,0.00,,,0.00,WUHU216HW,2013-12-05 18:36:00,
2013-12-05 11:37:00,40.1,22.4,29.84,North,0,0.0,0.0,49,0.00,,,0.00,WUHU216HW,2013-12-05 18:37:00,
2013-12-05 11:38:00,40.1,22.4,29.84,North,0,0.0,0.0,49,0.00,,,0.00,WUHU216HW,2013-12-05 18:38:00,
2013-12-05 12:00:00,40.9,23.6,29.83,North,0,0.0,0.0,50,0.00,,,0.00,WUHU216HW,2013-12-05 19:00:00,
2013-12-05 12:01:00,40.9,23.6,29.83,North,0,0.0,0.0,50,0.00,,,0.00,WUHU216HW,2013-12-05 19:01:00,
2013-12-05 12:02:00,40.9,23.6,29.83,North,0,0.0,0.0,50,0.00,,,0.00,WUHU216HW,2013-12-05 19:02:00,
2013-12-05 12:05:00,40.9,23.6,29.83,North,0,0.0,0.0,50,0.00,,,0.00,WUHU216HW,2013-12-05 19:05:00,
2013-12-05 12:07:00,40.9,23.6,29.83,North,0,0.0,0.0,50,0.00,,,0.00,WUHU216HW,2013-12-05 19:07:00,
2013-12-05 12:08:00,40.9,23.6,29.83,North,0,0.0,0.0,50,0.00,,,0.00,WUHU216HW,2013-12-05 19:08:00,
2013-12-05 12:30:00,41.4,23.0,29.82,North,0,0.0,0.0,48,0.00,,,0.00,WUHU216HW,2013-12-05 19:30:00,
2013-12-05 12:31:00,41.4,23.0,29.82,North,0,0.0,0.0,48,0.00,,,0.00,WUHU216HW,2013-12-05 19:31:00,
2013-12-05 12:32:00,41.4,23.0,29.82,North,0,0.0,0.0,48,0.00,,,0.00,WUHU216HW,2013-12-05 19:32:00,
2013-12-05 12:35:00,41.4,23.0,29.82,North,0,0.0,0.0,48,0.00,,,0.00,WUHU216HW,2013-12-05 19:35:00,
2013-12-05 12:36:00,41.4,23.0,29.82,North,0,0.0,0.0,48,0.00,,,0.00,WUHU216HW,2013-12-05 19:36:00,
2013-12-05 12:37:00,41.4,23.0,29.82,North,0,0.0,0.0,48,0.00,,,0.00,WUHU216HW,2013-12-05 19:37:00,
2013-12-05 12:39:00,41.4,23.0,29.82,North,0,0.0,0.0,48,0.00,,,0.00,WUHU216HW,2013-12-05 19:39:00,
2013-12-05 13:00:00,42.5,21.4,29.82,North,0,0.0,0.0,43,0.00,,,0.00,WUHU216HW,2013-12-05 20:00:00,
2013-12-05 13:01:00,42.3,21.2,29.82,North,0,0.0,0.0,43,0.00,,,0.00,WUHU216HW,2013-12-05 20:01:00,
2013-12-05 13:02:00,42.3,21.2,29.82,North,0,0.0,0.0,43,0.00,,,0.00,WUHU216HW,2013-12-05 20:02:00,
2013-12-05 13:05:00,42.3,21.2,29.82,North,0,0.0,0.0,43,0.00,,,0.00,WUHU216HW,2013-12-05 20:05:00,
2013-12-05 13:06:00,42.3,21.2,29.82,North,0,0.0,0.0,43,0.00,,,0.00,WUHU216HW,2013-12-05 20:06:00,
2013-12-05 13:07:00,42.3,21.2,29.82,North,0,0.0,0.0,43,0.00,,,0.00,WUHU216HW,2013-12-05 20:07:00,
2013-12-05 13:30:00,43.4,22.2,29.80,North,0,0.0,0.0,43,0.00,,,0.00,WUHU216HW,2013-12-05 20:30:00,
2013-12-05 13:31:00,43.4,22.2,29.80,North,0,0.0,0.0,43,0.00,,,0.00,WUHU216HW,2013-12-05 20:31:00,
2013-12-05 13:33:00,43.4,22.2,29.80,North,0,0.0,0.0,43,0.00,,,0.00,WUHU216HW,2013-12-05 20:33:00,
2013-12-05 13:35:00,43.4,22.2,29.80,North,0,0.0,0.0,43,0.00,,,0.00,WUHU216HW,2013-12-05 20:35:00,
2013-12-05 13:36:00,43.4,22.2,29.80,North,0,0.0,0.0,43,0.00,,,0.00,WUHU216HW,2013-12-05 20:36:00,
2013-12-05 13:37:00,43.4,22.2,29.80,North,0,0.0,0.0,43,0.00,,,0.00,WUHU216HW,2013-12-05 20:37:00,
2013-12-05 13:38:00,43.4,22.2,29.80,North,0,0.0,0.0,43,0.00,,,0.00,WUHU216HW,2013-12-05 20:38:00,
2013-12-05 14:00:00,43.6,20.8,29.80,North,0,0.0,0.0,40,0.00,,,0.00,WUHU216HW,2013-12-05 21:00:00,
2013-12-05 14:01:00,43.6,20.8,29.80,North,0,0.0,0.0,40,0.00,,,0.00,WUHU216HW,2013-12-05 21:01:00,
2013-12-05 14:02:00,43.6,20.8,29.80,North,0,0.0,0.0,40,0.00,,,0.00,WUHU216HW,2013-12-05 21:02:00,
2013-12-05 14:05:00,43.6,20.8,29.80,North,0,0.0,0.0,40,0.00,,,0.00,WUHU216HW,2013-12-05 21:05:00,
2013-12-05 14:06:00,43.6,20.8,29.80,North,0,0.0,0.0,40,0.00,,,0.00,WUHU216HW,2013-12-05 21:06:00,
2013-12-05 14:07:00,43.6,20.8,29.80,North,0,0.0,0.0,40,0.00,,,0.00,WUHU216HW,2013-12-05 21:07:00,
2013-12-05 14:08:00,43.6,20.8,29.80,North,0,0.0,0.0,40,0.00,,,0.00,WUHU216HW,2013-12-05 21:08:00,
2013-12-05 14:30:00,43.7,21.0,29.79,North,0,0.0,0.0,40,0.00,,,0.00,WUHU216HW,2013-12-05 21:30:00,
2013-12-05 14:31:00,43.7,21.0,29.79,North,0,0.0,0.0,40,0.00,,,0.00,WUHU216HW,2013-12-05 21:31:00,
2013-12-05 14:32:00,43.7,21.0,29.79,North,0,0.0,0.0,40,0.00,,,0.00,WUHU216HW,2013-12-05 21:32:00,
2013-12-05 14:36:00,43.7,21.0,29.79,North,0,0.0,0.0,40,0.00,,,0.00,WUHU216HW,2013-12-05 21:36:00,
2013-12-05 14:37:00,43.7,21.0,29.79,North,0,0.0,0.0,40,0.00,,,0.00,WUHU216HW,2013-12-05 21:37:00,
2013-12-05 14:38:00,43.7,21.0,29.79,North,0,0.0,0.0,40,0.00,,,0.00,WUHU216HW,2013-12-05 21:38:00,
2013-12-05 15:00:00,44.1,20.0,29.79,North,0,0.0,0.0,38,0.00,,,0.00,WUHU216HW,2013-12-05 22:00:00,
2013-12-05 15:01:00,44.1,20.0,29.79,North,0,0.0,0.0,38,0.00,,,0.00,WUHU216HW,2013-12-05 22:01:00,
2013-12-05 15:02:00,44.1,20.0,29.79,North,0,0.0,0.0,38,0.00,,,0.00,WUHU216HW,2013-12-05 22:02:00,
2013-12-05 15:05:00,44.1,20.0,29.79,North,0,0.0,0.0,38,0.00,,,0.00,WUHU216HW,2013-12-05 22:05:00,
2013-12-05 15:06:00,44.1,20.0,29.79,North,0,0.0,0.0,38,0.00,,,0.00,WUHU216HW,2013-12-05 22:06:00,
2013-12-05 15:07:00,44.1,20.0,29.79,North,0,0.0,0.0,38,0.00,,,0.00,WUHU216HW,2013-12-05 22:07:00,
2013-12-05 15:09:00,44.1,20.0,29.79,North,0,0.0,0.0,38,0.00,,,0.00,WUHU216HW,2013-12-05 22:09:00,
2013-12-05 15:30:00,44.1,20.6,29.79,North,0,0.0,0.0,39,0.00,,,0.00,WUHU216HW,2013-12-05 22:30:00,
2013-12-05 15:31:00,44.1,20.6,29.79,North,0,0.0,0.0,39,0.00,,,0.00,WUHU216HW,2013-12-05 22:31:00,
2013-12-05 15:35:00,44.1,20.6,29.79,North,0,0.0,0.0,39,0.00,,,0.00,WUHU216HW,2013-12-05 22:35:00,
2013-12-05 15:36:00,44.1,20.6,29.79,North,0,0.0,0.0,39,0.00,,,0.00,WUHU216HW,2013-12-05 22:36:00,
2013-12-05 15:37:00,44.1,20.6,29.79,North,0,0.0,0.0,39,0.00,,,0.00,WUHU216HW,2013-12-05 22:37:00,
2013-12-05 15:38:00,44.1,20.6,29.79,North,0,0.0,0.0,39,0.00,,,0.00,WUHU216HW,2013-12-05 22:38:00,
2013-12-05 16:00:00,44.1,20.6,29.79,North,0,0.0,0.0,39,0.00,,,0.00,WUHU216HW,2013-12-05 23:00:00,
2013-12-05 16:01:00,43.9,20.4,29.79,North,0,0.0,0.0,39,0.00,,,0.00,WUHU216HW,2013-12-05 23:01:00,
2013-12-05 16:05:00,43.9,20.4,29.79,North,0,0.0,0.0,39,0.00,,,0.00,WUHU216HW,2013-12-05 23:05:00,
2013-12-05 16:06:00,43.9,20.4,29.79,North,0,0.0,0.0,39,0.00,,,0.00,WUHU216HW,2013-12-05 23:06:00,
2013-12-05 16:07:00,43.9,20.4,29.79,North,0,0.0,0.0,39,0.00,,,0.00,WUHU216HW,2013-12-05 23:07:00,
2013-12-05 16:09:00,43.9,20.4,29.79,North,0,0.0,0.0,39,0.00,,,0.00,WUHU216HW,2013-12-05 23:09:00,
2013-12-05 16:30:00,43.6,19.4,29.80,North,0,0.0,0.0,38,0.00,,,0.00,WUHU216HW,2013-12-05 23:30:00,
2013-12-05 16:31:00,43.6,19.4,29.80,North,0,0.0,0.0,38,0.00,,,0.00,WUHU216HW,2013-12-05 23:31:00,
2013-12-05 16:35:00,43.6,19.4,29.80,North,0,0.0,0.0,38,0.00,,,0.00,WUHU216HW,2013-12-05 23:35:00,
2013-12-05 16:36:00,43.6,19.4,29.80,North,0,0.0,0.0,38,0.00,,,0.00,WUHU216HW,2013-12-05 23:36:00,
2013-12-05 16:37:00,43.6,19.4,29.80,North,0,0.0,0.0,38,0.00,,,0.00,WUHU216HW,2013-12-05 23:37:00,
2013-12-05 17:00:00,42.8,20.2,29.80,North,0,0.0,0.0,40,0.00,,,0.00,WUHU216HW,2013-12-06 00:00:00,
2013-12-05 17:01:00,42.8,20.2,29.80,North,0,0.0,0.0,40,0.00,,,0.00,WUHU216HW,2013-12-06 00:01:00,
2013-12-05 17:02:00,42.8,20.2,29.80,North,0,0.0,0.0,40,0.00,,,0.00,WUHU216HW,2013-12-06 00:02:00,
2013-12-05 17:05:00,42.8,20.2,29.80,North,0,0.0,0.0,40,0.00,,,0.00,WUHU216HW,2013-12-06 00:05:00,
2013-12-05 17:06:00,42.8,20.2,29.80,North,0,0.0,0.0,40,0.00,,,0.00,WUHU216HW,2013-12-06 00:06:00,
2013-12-05 17:07:00,42.8,20.2,29.80,North,0,0.0,0.0,40,0.00,,,0.00,WUHU216HW,2013-12-06 00:07:00,
2013-12-05 17:08:00,42.8,20.2,29.80,North,0,0.0,0.0,40,0.00,,,0.00,WUHU216HW,2013-12-06 00:08:00,
2013-12-05 17:30:00,40.3,19.4,29.81,North,0,0.0,0.0,43,0.00,,,0.00,WUHU216HW,2013-12-06 00:30:00,
2013-12-05 17:31:00,40.3,19.4,29.81,North,0,0.0,0.0,43,0.00,,,0.00,WUHU216HW,2013-12-06 00:31:00,
2013-12-05 17:36:00,40.3,19.4,29.81,North,0,0.0,0.0,43,0.00,,,0.00,WUHU216HW,2013-12-06 00:36:00,
2013-12-05 17:37:00,40.3,19.4,29.81,North,0,0.0,0.0,43,0.00,,,0.00,WUHU216HW,2013-12-06 00:37:00,
2013-12-05 17:38:00,40.3,19.4,29.81,North,0,0.0,0.0,43,0.00,,,0.00,WUHU216HW,2013-12-06 00:38:00,
2013-12-05 17:40:00,40.3,19.4,29.81,North,0,0.0,0.0,43,0.00,,,0.00,WUHU216HW,2013-12-06 00:40:00,
2013-12-05 18:00:00,38.5,18.4,29.80,North,0,0.0,0.0,44,0.00,,,0.00,WUHU216HW,2013-12-06 01:00:00,
2013-12-05 18:01:00,38.5,18.4,29.81,North,0,0.0,0.0,44,0.00,,,0.00,WUHU216HW,2013-12-06 01:01:00,
2013-12-05 18:02:00,38.5,18.4,29.81,North,0,0.0,0.0,44,0.00,,,0.00,WUHU216HW,2013-12-06 01:02:00,
2013-12-05 18:05:00,38.5,18.4,29.81,North,0,0.0,0.0,44,0.00,,,0.00,WUHU216HW,2013-12-06 01:05:00,
2013-12-05 18:06:00,38.5,18.4,29.81,North,0,0.0,0.0,44,0.00,,,0.00,WUHU216HW,2013-12-06 01:06:00,
2013-12-05 18:07:00,38.5,18.4,29.81,North,0,0.0,0.0,44,0.00,,,0.00,WUHU216HW,2013-12-06 01:07:00,
2013-12-05 18:30:00,37.6,18.1,29.81,North,0,0.0,0.0,45,0.00,,,0.00,WUHU216HW,2013-12-06 01:30:00,
2013-12-05 18:31:00,37.6,18.1,29.81,North,0,0.0,0.0,45,0.00,,,0.00,WUHU216HW,2013-12-06 01:31:00,
2013-12-05 18:32:00,37.6,18.1,29.81,North,0,0.0,0.0,45,0.00,,,0.00,WUHU216HW,2013-12-06 01:32:00,
2013-12-05 18:36:00,37.6,18.1,29.81,North,0,0.0,0.0,45,0.00,,,0.00,WUHU216HW,2013-12-06 01:36:00,
2013-12-05 18:37:00,37.6,18.1,29.81,North,0,0.0,0.0,45,0.00,,,0.00,WUHU216HW,2013-12-06 01:37:00,
2013-12-05 18:38:00,37.6,18.1,29.81,North,0,0.0,0.0,45,0.00,,,0.00,WUHU216HW,2013-12-06 01:38:00,
2013-12-05 19:00:00,36.9,17.5,29.82,North,0,0.0,0.0,45,0.00,,,0.00,WUHU216HW,2013-12-06 02:00:00,
2013-12-05 19:02:00,36.9,17.5,29.82,North,0,0.0,0.0,45,0.00,,,0.00,WUHU216HW,2013-12-06 02:02:00,
2013-12-05 19:05:00,36.9,17.5,29.82,North,0,0.0,0.0,45,0.00,,,0.00,WUHU216HW,2013-12-06 02:05:00,
2013-12-05 19:06:00,36.9,17.5,29.82,North,0,0.0,0.0,45,0.00,,,0.00,WUHU216HW,2013-12-06 02:06:00,
2013-12-05 19:08:00,36.9,17.5,29.82,North,0,0.0,0.0,45,0.00,,,0.00,WUHU216HW,2013-12-06 02:08:00,
2013-12-05 19:30:00,36.0,17.1,29.83,North,0,0.0,0.0,46,0.00,,,0.00,WUHU216HW,2013-12-06 02:30:00,
2013-12-05 19:31:00,36.0,17.1,29.83,North,0,0.0,0.0,46,0.00,,,0.00,WUHU216HW,2013-12-06 02:31:00,
2013-12-05 19:32:00,36.0,17.1,29.83,North,0,0.0,0.0,46,0.00,,,0.00,WUHU216HW,2013-12-06 02:32:00,
2013-12-05 19:36:00,36.0,17.1,29.83,North,0,0.0,0.0,46,0.00,,,0.00,WUHU216HW,2013-12-06 02:36:00,
2013-12-05 19:37:00,36.0,17.1,29.83,North,0,0.0,0.0,46,0.00,,,0.00,WUHU216HW,2013-12-06 02:37:00,
2013-12-05 19:39:00,36.0,17.1,29.83,North,0,0.0,0.0,46,0.00,,,0.00,WUHU216HW,2013-12-06 02:39:00,
2013-12-05 20:00:00,36.7,16.7,29.84,North,0,0.0,0.0,44,0.00,,,0.00,WUHU216HW,2013-12-06 03:00:00,
2013-12-05 20:01:00,36.7,16.7,29.84,North,0,0.0,0.0,44,0.00,,,0.00,WUHU216HW,2013-12-06 03:01:00,
2013-12-05 20:05:00,36.7,16.7,29.84,North,0,0.0,0.0,44,0.00,,,0.00,WUHU216HW,2013-12-06 03:05:00,
2013-12-05 20:06:00,36.7,16.7,29.84,North,0,0.0,0.0,44,0.00,,,0.00,WUHU216HW,2013-12-06 03:06:00,
2013-12-05 20:08:00,36.7,16.7,29.84,North,0,0.0,0.0,44,0.00,,,0.00,WUHU216HW,2013-12-06 03:08:00,
2013-12-05 20:30:00,35.3,17.5,29.86,North,0,0.0,0.0,48,0.00,,,0.00,WUHU216HW,2013-12-06 03:30:00,
2013-12-05 20:31:00,35.3,17.5,29.86,North,0,0.0,0.0,48,0.00,,,0.00,WUHU216HW,2013-12-06 03:31:00,
2013-12-05 20:33:00,35.3,17.5,29.86,North,0,0.0,0.0,48,0.00,,,0.00,WUHU216HW,2013-12-06 03:33:00,
2013-12-05 20:36:00,35.3,17.5,29.86,North,0,0.0,0.0,48,0.00,,,0.00,WUHU216HW,2013-12-06 03:36:00,
2013-12-05 20:37:00,35.3,17.5,29.86,North,0,0.0,0.0,48,0.00,,,0.00,WUHU216HW,2013-12-06 03:37:00,
2013-12-05 20:40:00,35.3,17.5,29.86,North,0,0.0,0.0,48,0.00,,,0.00,WUHU216HW,2013-12-06 03:40:00,
2013-12-05 21:00:00,33.8,17.6,29.87,North,0,0.0,0.0,51,0.00,,,0.00,WUHU216HW,2013-12-06 04:00:00,
2013-12-05 21:01:00,33.8,17.6,29.87,North,0,0.0,0.0,51,0.00,,,0.00,WUHU216HW,2013-12-06 04:01:00,
2013-12-05 21:05:00,33.8,17.6,29.87,North,0,0.0,0.0,51,0.00,,,0.00,WUHU216HW,2013-12-06 04:05:00,
2013-12-05 21:06:00,33.8,17.6,29.87,North,0,0.0,0.0,51,0.00,,,0.00,WUHU216HW,2013-12-06 04:06:00,
2013-12-05 21:08:00,33.8,17.6,29.87,North,0,0.0,0.0,51,0.00,,,0.00,WUHU216HW,2013-12-06 04:08:00,
2013-12-05 21:30:00,33.5,17.2,29.88,North,0,0.0,0.0,51,0.00,,,0.00,WUHU216HW,2013-12-06 04:30:00,
2013-12-05 21:31:00,33.5,17.2,29.88,North,0,0.0,0.0,51,0.00,,,0.00,WUHU216HW,2013-12-06 04:31:00,
2013-12-05 21:32:00,33.5,17.2,29.88,North,0,0.0,0.0,51,0.00,,,0.00,WUHU216HW,2013-12-06 04:32:00,
2013-12-05 21:35:00,33.5,17.2,29.88,North,0,0.0,0.0,51,0.00,,,0.00,WUHU216HW,2013-12-06 04:35:00,
2013-12-05 21:36:00,33.5,17.2,29.88,North,0,0.0,0.0,51,0.00,,,0.00,WUHU216HW,2013-12-06 04:36:00,
2013-12-05 21:37:00,33.5,17.2,29.88,North,0,0.0,0.0,51,0.00,,,0.00,WUHU216HW,2013-12-06 04:37:00,
2013-12-05 21:38:00,33.5,17.2,29.88,North,0,0.0,0.0,51,0.00,,,0.00,WUHU216HW,2013-12-06 04:38:00,
2013-12-05 22:00:00,32.8,17.0,29.89,North,0,0.0,0.0,52,0.00,,,0.00,WUHU216HW,2013-12-06 05:00:00,
2013-12-05 22:01:00,32.8,17.0,29.89,North,0,0.0,0.0,52,0.00,,,0.00,WUHU216HW,2013-12-06 05:01:00,
2013-12-05 22:03:00,32.8,17.0,29.89,North,0,0.0,0.0,52,0.00,,,0.00,WUHU216HW,2013-12-06 05:03:00,
2013-12-05 22:06:00,32.8,17.0,29.89,North,0,0.0,0.0,52,0.00,,,0.00,WUHU216HW,2013-12-06 05:06:00,
2013-12-05 22:07:00,32.8,17.0,29.89,North,0,0.0,0.0,52,0.00,,,0.00,WUHU216HW,2013-12-06 05:07:00,
2013-12-05 22:09:00,32.8,17.0,29.89,North,0,0.0,0.0,52,0.00,,,0.00,WUHU216HW,2013-12-06 05:09:00,
2013-12-05 22:30:00,32.0,16.7,29.90,North,0,0.0,0.0,53,0.00,,,0.00,WUHU216HW,2013-12-06 05:30:00,
2013-12-05 22:31:00,32.0,16.7,29.90,North,0,0.0,0.0,53,0.00,,,0.00,WUHU216HW,2013-12-06 05:31:00,
2013-12-05 22:35:00,32.0,16.7,29.90,North,0,0.0,0.0,53,0.00,,,0.00,WUHU216HW,2013-12-06 05:35:00,
2013-12-05 22:36:00,32.0,16.7,29.90,North,0,0.0,0.0,53,0.00,,,0.00,WUHU216HW,2013-12-06 05:36:00,
2013-12-05 22:37:00,32.0,16.7,29.90,North,0,0.0,0.0,53,0.00,,,0.00,WUHU216HW,2013-12-06 05:37:00,
2013-12-05 22:39:00,32.0,16.7,29.90,North,0,0.0,0.0,53,0.00,,,0.00,WUHU216HW,2013-12-06 05:39:00,
2013-12-05 23:00:00,31.3,16.1,29.91,North,0,0.0,0.0,53,0.00,,,0.00,WUHU216HW,2013-12-06 06:00:00,
2013-12-05 23:01:00,31.3,16.1,29.92,North,0,0.0,0.0,53,0.00,,,0.00,WUHU216HW,2013-12-06 06:01:00,
2013-12-05 23:02:00,31.3,16.1,29.92,North,0,0.0,0.0,53,0.00,,,0.00,WUHU216HW,2013-12-06 06:02:00,
2013-12-05 23:05:00,31.3,16.1,29.92,North,0,0.0,0.0,53,0.00,,,0.00,WUHU216HW,2013-12-06 06:05:00,
2013-12-05 23:06:00,31.3,16.1,29.92,North,0,0.0,0.0,53,0.00,,,0.00,WUHU216HW,2013-12-06 06:06:00,
2013-12-05 23:07:00,31.3,16.1,29.92,North,0,0.0,0.0,53,0.00,,,0.00,WUHU216HW,2013-12-06 06:07:00,
2013-12-05 23:08:00,31.3,16.1,29.92,North,0,0.0,0.0,53,0.00,,,0.00,WUHU216HW,2013-12-06 06:08:00,
2013-12-05 23:30:00,31.0,15.8,29.92,North,0,0.0,0.0,53,0.00,,,0.00,WUHU216HW,2013-12-06 06:30:00,
2013-12-05 23:31:00,31.0,15.8,29.92,North,0,0.0,0.0,53,0.00,,,0.00,WUHU216HW,2013-12-06 06:31:00,
2013-12-05 23:36:00,31.0,15.8,29.92,North,0,0.0,0.0,53,0.00,,,0.00,WUHU216HW,2013-12-06 06:36:00,
2013-12-05 23:37:00,31.0,15.8,29.92,North,0,0.0,0.0,53,0.00,,,0.00,WUHU216HW,2013-12-06 06:37:00,
2013-12-05 23:39:00,31.0,15.8,29.92,North,0,0.0,0.0,53,0.00,,,0.00,WUHU216HW,2013-12-06 06:39:00,